Time;durP1;ratioP1;P1;durP2;ratioP2;P2;SDS_P1;SDS_P2;PMS_P1;PMS_P2;Temp;Humidity;BMP_temperature;BMP_pressure;BME280_temperature;BME280_humidity;BME280_pressure;Samples;Min_cycle;Max_cycle;Signal;HPM_P1;HPM_P2
2022/03/31 00:01:20;;;;;;;;;14.75;13.25;;;;;20.29;37.10;99538.78;4954333;28;45253;-61
2022/03/31 00:03:45;;;;;;;;;23.50;16.50;;;;;20.29;37.59;99537.91;4955769;28;45372;-60
2022/03/31 00:06:10;;;;;;;;;16.25;14.50;;;;;20.29;37.67;99543.19;4955920;28;45693;-63
2022/03/31 00:08:36;;;;;;;;;13.25;13.25;;;;;20.28;37.42;99544.16;4955216;28;56498;-60
2022/03/31 00:11:02;;;;;;;;;13.75;12.50;;;;;20.27;37.22;99530.16;4954409;28;45804;-61
2022/03/31 00:13:29;;;;;;;;;17.00;16.25;;;;;20.27;37.49;99538.03;4954656;28;45373;-61
2022/03/31 00:15:57;;;;;;;;;17.25;16.00;;;;;20.28;36.94;99536.28;4955886;28;45597;-60
2022/03/31 00:18:24;;;;;;;;;15.50;15.50;;;;;20.27;37.56;99534.59;4955216;28;47284;-60
2022/03/31 00:20:50;;;;;;;;;15.25;15.00;;;;;20.27;37.20;99530.16;4955517;28;45790;-61
2022/03/31 00:23:15;;;;;;;;;17.00;17.00;;;;;20.27;37.47;99535.41;4955522;28;45288;-61
2022/03/31 00:25:41;;;;;;;;;18.00;14.00;;;;;20.26;37.21;99531.09;4955618;28;45367;-61
2022/03/31 00:28:06;;;;;;;;;17.00;14.25;;;;;20.26;37.28;99527.66;4955252;28;45585;-61
2022/03/31 00:30:33;;;;;;;;;13.00;12.25;;;;;20.26;37.31;99525.84;4955552;28;45285;-61
2022/03/31 00:32:59;;;;;;;;;15.75;13.00;;;;;20.26;37.15;99525.00;4955915;28;45443;-62
2022/03/31 00:35:25;;;;;;;;;15.00;15.00;;;;;20.25;36.96;99521.53;4955706;28;45450;-62
2022/03/31 00:37:50;;;;;;;;;19.25;16.75;;;;;20.26;37.09;99517.94;4954686;28;45454;-62
2022/03/31 00:40:21;;;;;;;;;15.75;14.75;;;;;20.25;37.24;99524.16;4955246;28;45296;-61
2022/03/31 00:42:49;;;;;;;;;16.75;14.50;;;;;20.23;37.06;99512.91;4955102;28;45236;-61
2022/03/31 00:45:23;;;;;;;;;14.00;12.25;;;;;20.23;37.16;99507.66;4954742;28;45633;-61
2022/03/31 00:47:53;;;;;;;;;15.00;14.75;;;;;20.24;37.16;99504.06;4955199;28;46032;-62
2022/03/31 00:50:19;;;;;;;;;16.00;14.75;;;;;20.25;36.74;99508.38;4955043;28;45819;-61
2022/03/31 00:52:45;;;;;;;;;18.00;15.25;;;;;20.22;36.86;99495.47;4955208;28;45285;-61
2022/03/31 00:55:13;;;;;;;;;17.25;14.75;;;;;20.21;36.97;99499.06;4955338;28;45335;-61
2022/03/31 00:57:39;;;;;;;;;13.25;13.25;;;;;20.22;36.84;99495.47;4955034;28;45964;-60
2022/03/31 01:00:07;;;;;;;;;11.75;11.75;;;;;20.22;37.22;99498.09;4955022;28;45823;-61
2022/03/31 01:02:35;;;;;;;;;16.00;16.00;;;;;20.23;36.86;99502.38;4954008;28;45341;-59
2022/03/31 01:05:01;;;;;;;;;13.50;12.25;;;;;20.22;36.93;99485.78;4955657;28;45597;-61
2022/03/31 01:07:27;;;;;;;;;13.50;13.50;;;;;20.22;37.02;99483.16;4953328;28;46936;-59
2022/03/31 01:09:54;;;;;;;;;12.50;12.50;;;;;20.22;36.97;99485.78;4954833;28;46100;-61
2022/03/31 01:12:19;;;;;;;;;13.75;12.00;;;;;20.22;36.87;99484.94;4954972;28;45431;-61
2022/03/31 01:14:45;;;;;;;;;13.50;13.50;;;;;20.21;37.23;99481.47;4953857;28;45511;-60
2022/03/31 01:17:10;;;;;;;;;13.25;11.50;;;;;20.21;37.14;99486.72;4954513;28;46626;-61
2022/03/31 01:19:36;;;;;;;;;12.50;12.50;;;;;20.21;37.05;99478.84;4954754;28;45391;-61
2022/03/31 01:22:02;;;;;;;;;13.25;13.25;;;;;20.22;36.62;99482.31;4956149;28;45348;-61
2022/03/31 01:24:28;;;;;;;;;14.00;13.00;;;;;20.20;36.68;99481.59;4953660;28;45651;-60
2022/03/31 01:26:54;;;;;;;;;15.00;14.00;;;;;20.20;37.03;99473.69;4954501;28;46922;-61
2022/03/31 01:29:21;;;;;;;;;20.50;15.50;;;;;20.21;36.59;99478.00;4954909;28;45374;-59
2022/03/31 01:31:47;;;;;;;;;16.00;14.00;;;;;20.21;37.33;99470.13;4954695;28;45348;-61
2022/03/31 01:34:12;;;;;;;;;15.25;14.25;;;;;20.20;37.08;99466.63;4954763;28;45553;-59
2022/03/31 01:36:38;;;;;;;;;13.50;9.75;;;;;20.21;37.06;99472.75;4954404;28;45958;-61
2022/03/31 01:39:05;;;;;;;;;14.50;14.50;;;;;20.20;36.69;99466.63;4954694;28;45374;-61
2022/03/31 01:41:30;;;;;;;;;13.75;13.75;;;;;20.20;36.83;99474.53;4954867;28;45470;-59
2022/03/31 01:43:56;;;;;;;;;14.50;12.00;;;;;20.19;37.20;99464.94;4954783;28;45636;-61
2022/03/31 01:46:23;;;;;;;;;15.50;11.50;;;;;20.19;37.07;99458.88;4954109;28;45682;-61
2022/03/31 01:48:48;;;;;;;;;13.25;13.00;;;;;20.20;36.47;99460.53;4954304;28;45890;-60
2022/03/31 01:51:14;;;;;;;;;11.50;11.00;;;;;20.20;37.16;99457.91;4953016;28;45582;-60
2022/03/31 01:53:40;;;;;;;;;13.00;12.00;;;;;20.20;36.45;99455.28;4954589;28;45249;-60
2022/03/31 01:56:09;;;;;;;;;14.50;12.00;;;;;20.18;37.08;99447.50;4956346;28;45978;-60
2022/03/31 01:58:35;;;;;;;;;11.25;10.00;;;;;20.19;36.61;99445.72;4957544;28;45354;-61
2022/03/31 02:01:01;;;;;;;;;14.00;12.00;;;;;20.20;36.75;99447.41;4957405;28;45443;-62
2022/03/31 02:03:26;;;;;;;;;11.00;11.00;;;;;20.19;36.98;99443.09;4957418;28;45369;-61
2022/03/31 02:05:51;;;;;;;;;13.00;10.75;;;;;20.19;37.14;99437.81;4956953;28;46225;-61
2022/03/31 02:08:18;;;;;;;;;11.25;11.00;;;;;20.19;36.65;99437.81;4957025;28;45316;-60
2022/03/31 02:10:44;;;;;;;;;14.75;13.25;;;;;20.18;37.25;99436.97;4957114;28;45477;-61
2022/03/31 02:13:09;;;;;;;;;12.50;10.50;;;;;20.19;36.93;99443.09;4957269;28;45538;-61
2022/03/31 02:15:35;;;;;;;;;10.25;9.75;;;;;20.18;36.67;99441.41;4957259;28;45450;-61
2022/03/31 02:18:02;;;;;;;;;9.75;9.00;;;;;20.18;36.64;99436.13;4956791;28;45319;-60
2022/03/31 02:20:28;;;;;;;;;11.00;9.50;;;;;20.18;36.81;99446.66;4957004;28;45245;-61
2022/03/31 02:22:55;;;;;;;;;14.25;11.00;;;;;20.17;36.89;99445.00;4957197;28;45644;-60
2022/03/31 02:25:20;;;;;;;;;10.00;10.00;;;;;20.17;36.48;99439.72;4956757;28;46276;-59
2022/03/31 02:27:50;;;;;;;;;11.50;9.00;;;;;20.17;36.79;99442.34;4956726;28;45324;-60
2022/03/31 02:30:15;;;;;;;;;12.25;11.25;;;;;20.17;36.91;99435.31;4956812;28;45342;-61
2022/03/31 02:32:42;;;;;;;;;10.75;10.75;;;;;20.16;36.49;99436.28;4957076;28;45627;-60
2022/03/31 02:35:08;;;;;;;;;13.25;10.00;;;;;20.16;36.47;99435.41;4956698;28;45339;-61
2022/03/31 02:37:34;;;;;;;;;11.75;10.25;;;;;20.16;36.40;99441.53;4955894;28;45485;-60
2022/03/31 02:40:00;;;;;;;;;10.50;10.25;;;;;20.17;36.73;99445.00;4956824;28;45319;-60
2022/03/31 02:42:25;;;;;;;;;13.50;12.50;;;;;20.16;36.38;99438.03;4956900;28;45459;-61
2022/03/31 02:44:51;;;;;;;;;15.00;13.25;;;;;20.16;36.36;99440.69;4956483;28;46411;-61
2022/03/31 02:47:16;;;;;;;;;9.50;9.25;;;;;20.17;36.53;99439.72;4956616;28;45293;-60
2022/03/31 02:49:43;;;;;;;;;15.25;12.50;;;;;20.15;36.52;99434.59;4956493;28;45394;-61
2022/03/31 02:52:09;;;;;;;;;11.50;11.50;;;;;20.16;36.82;99440.69;4955748;28;45305;-61
2022/03/31 02:57:18;;;;;;;;;12.00;11.75;;;;;20.14;36.74;99443.44;4956529;28;45323;-62
2022/03/31 02:59:45;;;;;;;;;12.75;12.00;;;;;20.14;36.44;99434.69;4956665;28;45778;-60
2022/03/31 03:02:10;;;;;;;;;14.00;12.75;;;;;20.14;36.74;99439.94;4956562;28;45166;-61
2022/03/31 03:04:36;;;;;;;;;10.50;10.25;;;;;20.14;36.49;99437.31;4956610;28;46484;-61
2022/03/31 03:07:01;;;;;;;;;7.50;7.50;;;;;20.14;36.27;99434.69;4955141;28;45357;-59
2022/03/31 03:09:27;;;;;;;;;11.00;11.00;;;;;20.13;36.57;99422.47;4956428;28;45232;-60
2022/03/31 03:11:52;;;;;;;;;14.25;11.00;;;;;20.14;36.31;99429.44;4956616;28;45511;-61
2022/03/31 03:14:17;;;;;;;;;13.00;11.25;;;;;20.13;36.54;99423.34;4954801;28;46484;-61
2022/03/31 03:16:43;;;;;;;;;12.00;12.00;;;;;20.12;36.28;99424.28;4956187;28;45386;-61
2022/03/31 03:19:09;;;;;;;;;12.25;12.25;;;;;20.13;36.38;99422.47;4956540;28;45302;-61
2022/03/31 03:21:34;;;;;;;;;13.50;10.50;;;;;20.12;36.81;99421.66;4956404;28;45633;-61
2022/03/31 03:24:04;;;;;;;;;13.25;11.50;;;;;20.12;36.88;99415.59;4956089;28;46563;-61
2022/03/31 03:26:30;;;;;;;;;12.50;11.00;;;;;20.12;36.22;99412.94;4956116;28;45268;-62
2022/03/31 03:28:56;;;;;;;;;12.25;10.25;;;;;20.12;36.41;99410.31;4956484;28;45238;-60
2022/03/31 03:31:21;;;;;;;;;13.00;10.25;;;;;20.11;36.52;99401.56;4956090;28;45316;-61
2022/03/31 03:33:47;;;;;;;;;11.50;10.50;;;;;20.12;36.70;99399.78;4955906;28;46695;-62
2022/03/31 03:36:19;;;;;;;;;13.00;12.00;;;;;20.12;36.70;99399.78;4956007;28;45289;-61
2022/03/31 03:38:44;;;;;;;;;10.75;10.75;;;;;20.12;36.84;99394.53;4955941;28;45426;-62
2022/03/31 03:41:11;;;;;;;;;15.25;12.00;;;;;20.12;36.30;99399.78;4956474;28;45344;-61
2022/03/31 03:43:37;;;;;;;;;12.25;10.75;;;;;20.11;36.54;99395.50;4954764;28;47255;-60
2022/03/31 03:46:03;;;;;;;;;13.00;9.00;;;;;20.12;36.77;99402.44;4956000;28;45403;-61
2022/03/31 03:48:28;;;;;;;;;10.50;10.25;;;;;20.10;36.79;99396.44;4956069;28;45813;-61
2022/03/31 03:50:54;;;;;;;;;10.75;9.50;;;;;20.10;36.69;99396.44;4956014;28;45598;-60
2022/03/31 03:53:20;;;;;;;;;12.75;12.00;;;;;20.09;36.57;99406.09;4954440;28;47783;-61
2022/03/31 03:55:46;;;;;;;;;11.50;11.50;;;;;20.10;36.44;99407.78;4955771;28;45338;-60
2022/03/31 03:58:11;;;;;;;;;14.50;11.50;;;;;20.11;36.32;99408.63;4956080;28;45370;-60
2022/03/31 04:00:36;;;;;;;;;11.00;10.25;;;;;20.11;36.59;99408.63;4956246;28;45341;-61
2022/03/31 04:03:02;;;;;;;;;14.50;11.00;;;;;20.10;36.65;99407.78;4955535;28;45333;-60
2022/03/31 04:05:27;;;;;;;;;10.75;10.00;;;;;20.10;36.78;99412.22;4954294;28;45447;-61
2022/03/31 04:07:52;;;;;;;;;12.25;12.25;;;;;20.10;36.78;99412.22;4955671;28;45338;-61
2022/03/31 04:10:18;;;;;;;;;10.25;10.25;;;;;20.09;36.86;99419.25;4955565;28;45593;-61
2022/03/31 04:12:43;;;;;;;;;12.75;12.75;;;;;20.08;36.42;99410.53;4955474;28;46354;-61
2022/03/31 04:15:09;;;;;;;;;12.25;11.25;;;;;20.08;36.51;99410.53;4955926;28;45343;-60
2022/03/31 04:17:35;;;;;;;;;13.25;12.00;;;;;20.08;36.26;99410.53;4955124;28;45469;-60
2022/03/31 04:20:02;;;;;;;;;13.75;11.25;;;;;20.08;36.51;99407.91;4955978;28;45318;-60
2022/03/31 04:22:27;;;;;;;;;11.00;10.75;;;;;20.07;36.71;99408.88;4954547;28;46521;-61
2022/03/31 04:24:53;;;;;;;;;10.25;10.25;;;;;20.08;36.36;99409.69;4955642;28;45382;-61
2022/03/31 04:27:18;;;;;;;;;12.50;11.00;;;;;20.07;36.25;99408.88;4955589;28;45356;-61
2022/03/31 04:29:44;;;;;;;;;13.50;10.00;;;;;20.08;36.58;99415.81;4955593;28;46234;-59
2022/03/31 04:32:10;;;;;;;;;16.50;15.25;;;;;20.07;36.19;99419.38;4955487;28;45347;-60
2022/03/31 04:34:35;;;;;;;;;19.25;15.00;;;;;20.05;36.18;99416.03;4955295;28;45378;-60
2022/03/31 04:37:01;;;;;;;;;17.25;16.50;;;;;20.05;36.04;99416.03;4955274;28;45439;-61
2022/03/31 04:39:26;;;;;;;;;14.00;13.75;;;;;20.07;36.74;99415.91;4955478;28;45408;-61
2022/03/31 04:41:52;;;;;;;;;14.75;12.00;;;;;20.06;36.26;99417.72;4955113;28;46060;-60
2022/03/31 04:44:18;;;;;;;;;12.25;12.25;;;;;20.05;36.40;99421.28;4955073;28;45477;-61
2022/03/31 04:46:45;;;;;;;;;11.75;11.75;;;;;20.07;36.09;99423.78;4955429;28;45384;-59
2022/03/31 04:49:10;;;;;;;;;13.75;13.50;;;;;20.08;36.35;99421.06;4955597;28;45415;-59
2022/03/31 04:51:36;;;;;;;;;14.00;11.50;;;;;20.06;36.39;99417.72;4954932;28;46270;-59
2022/03/31 04:54:02;;;;;;;;;14.75;11.00;;;;;20.05;36.51;99413.41;4955111;28;45240;-59
2022/03/31 04:56:27;;;;;;;;;12.25;12.25;;;;;20.07;36.45;99415.91;4955070;28;45275;-58
2022/03/31 04:58:52;;;;;;;;;13.50;13.00;;;;;20.07;36.56;99411.50;4955239;28;45236;-59
2022/03/31 05:01:18;;;;;;;;;17.25;14.25;;;;;20.06;36.64;99404.56;4954817;28;45347;-59
2022/03/31 05:03:43;;;;;;;;;12.75;12.75;;;;;20.07;36.19;99405.38;4955221;28;45307;-60
2022/03/31 05:06:09;;;;;;;;;15.75;13.25;;;;;20.07;36.15;99414.13;4955043;28;45313;-61
2022/03/31 05:08:35;;;;;;;;;16.25;14.50;;;;;20.06;36.65;99411.63;4955071;28;45392;-59
2022/03/31 05:11:00;;;;;;;;;14.75;11.50;;;;;20.06;36.12;99411.63;4954765;28;45792;-60
2022/03/31 05:13:26;;;;;;;;;14.00;12.25;;;;;20.06;36.59;99415.06;4954592;28;45367;-60
2022/03/31 05:15:52;;;;;;;;;13.75;12.75;;;;;20.05;36.29;99421.28;4954937;28;45446;-59
2022/03/31 05:18:18;;;;;;;;;12.25;11.25;;;;;20.05;36.39;99418.66;4954742;28;45506;-59
2022/03/31 05:20:43;;;;;;;;;10.25;10.25;;;;;20.04;36.64;99414.34;4954966;28;45788;-59
2022/03/31 05:23:10;;;;;;;;;14.00;13.75;;;;;20.05;36.27;99421.28;4953548;28;45310;-59
2022/03/31 05:25:35;;;;;;;;;11.50;10.00;;;;;20.07;36.18;99423.78;4954701;28;45477;-59
2022/03/31 05:28:01;;;;;;;;;14.00;10.75;;;;;20.05;36.37;99431.81;4954780;28;45672;-59
2022/03/31 05:30:26;;;;;;;;;14.00;12.50;;;;;20.06;36.13;99427.41;4953310;28;45296;-59
2022/03/31 05:32:53;;;;;;;;;13.25;11.00;;;;;20.05;36.48;99426.56;4954420;28;45264;-60
2022/03/31 05:35:20;;;;;;;;;15.25;11.25;;;;;20.05;36.52;99430.97;4954763;28;45494;-60
2022/03/31 05:37:46;;;;;;;;;12.00;10.75;;;;;20.04;36.38;99424.03;4955043;28;45339;-59
2022/03/31 05:40:13;;;;;;;;;11.25;10.75;;;;;20.05;36.12;99430.97;4954280;28;46536;-59
2022/03/31 05:42:39;;;;;;;;;13.00;10.75;;;;;20.05;36.32;99436.25;4954292;28;45368;-59
2022/03/31 05:45:07;;;;;;;;;13.75;11.50;;;;;20.04;36.08;99435.38;4954431;28;45296;-58
2022/03/31 05:47:32;;;;;;;;;12.75;12.50;;;;;20.05;36.59;99433.63;4954865;28;45329;-60
2022/03/31 05:49:58;;;;;;;;;14.50;14.50;;;;;20.05;36.56;99442.31;4954132;28;46225;-61
2022/03/31 05:52:23;;;;;;;;;16.50;11.50;;;;;20.04;35.98;99434.56;4954296;28;45256;-59
2022/03/31 05:54:49;;;;;;;;;14.25;12.00;;;;;20.04;36.35;99438.03;4954359;28;45399;-59
2022/03/31 05:57:15;;;;;;;;;9.25;8.25;;;;;20.04;35.91;99438.03;4954747;28;45430;-59
2022/03/31 05:59:41;;;;;;;;;13.50;11.50;;;;;20.04;36.15;99443.28;4954145;28;46424;-60
2022/03/31 06:02:08;;;;;;;;;10.50;10.50;;;;;20.04;35.92;99447.72;4954006;28;45951;-60
2022/03/31 06:04:33;;;;;;;;;11.75;10.25;;;;;20.04;36.19;99452.97;4954221;28;45357;-60
2022/03/31 06:06:59;;;;;;;;;4.50;3.25;;;;;20.04;36.38;99461.69;4954451;28;45600;-60
2022/03/31 06:09:24;;;;;;;;;14.25;13.50;;;;;20.05;36.06;99454.66;4953891;28;46251;-60
2022/03/31 06:11:49;;;;;;;;;14.75;13.25;;;;;20.03;36.42;99446.84;4954051;28;45341;-59
2022/03/31 06:14:15;;;;;;;;;13.00;9.50;;;;;20.04;36.33;99456.44;4954407;28;45274;-60
2022/03/31 06:16:40;;;;;;;;;12.00;11.75;;;;;20.03;36.02;99454.75;4952980;28;45412;-59
2022/03/31 06:19:08;;;;;;;;;13.25;12.25;;;;;20.03;36.06;99456.56;4953663;28;46082;-58
2022/03/31 06:21:34;;;;;;;;;13.75;13.00;;;;;20.03;36.26;99459.19;4953819;28;45233;-58
2022/03/31 06:24:00;;;;;;;;;14.25;12.50;;;;;20.04;36.27;99464.31;4953909;28;45427;-61
2022/03/31 06:26:25;;;;;;;;;10.00;10.00;;;;;20.03;36.33;99464.44;4955927;28;45316;-59
2022/03/31 06:28:51;;;;;;;;;13.75;12.75;;;;;20.02;36.32;99468.84;4953469;28;46025;-60
2022/03/31 06:31:17;;;;;;;;;14.50;12.50;;;;;20.02;36.46;99468.84;4953800;28;45443;-59
2022/03/31 06:33:42;;;;;;;;;13.25;12.00;;;;;20.02;36.01;99474.09;4953606;28;45288;-60
2022/03/31 06:36:08;;;;;;;;;13.00;12.00;;;;;20.03;36.18;99480.22;4953762;28;45277;-59
2022/03/31 06:38:33;;;;;;;;;12.50;11.25;;;;;20.01;36.50;99477.69;4953301;28;46085;-60
2022/03/31 06:41:13;;;;;;;;;14.75;12.50;;;;;20.02;35.92;99481.19;4954335;28;46016;-61
2022/03/31 06:43:40;;;;;;;;;14.75;14.25;;;;;20.01;36.41;99479.50;4956726;28;45450;-59
2022/03/31 06:46:06;;;;;;;;;15.25;14.00;;;;;20.01;36.00;99480.31;4956753;28;45324;-60
2022/03/31 06:48:31;;;;;;;;;18.50;13.25;;;;;20.01;36.58;99479.50;4955097;28;47036;-60
2022/03/31 06:50:58;;;;;;;;;16.75;15.00;;;;;20.02;36.14;99473.28;4955002;28;45427;-58
2022/03/31 06:53:24;;;;;;;;;18.00;16.00;;;;;20.01;36.35;99466.34;4956531;28;45504;-60
2022/03/31 06:55:50;;;;;;;;;21.25;15.75;;;;;20.02;36.31;99474.09;4956783;28;45478;-58
2022/03/31 06:58:16;;;;;;;;;20.25;16.50;;;;;20.01;36.58;99471.59;4956533;28;46450;-60
2022/03/31 07:00:41;;;;;;;;;19.00;17.00;;;;;20.02;35.96;99468.03;4955027;28;45439;-60
2022/03/31 07:03:07;;;;;;;;;17.50;16.75;;;;;20.00;35.92;99460.25;4956395;28;45311;-58
2022/03/31 07:05:36;;;;;;;;;15.25;15.25;;;;;20.01;36.03;99466.34;4956587;28;45366;-61
2022/03/31 07:08:03;;;;;;;;;20.75;17.75;;;;;20.00;36.15;99464.66;4956207;28;46328;-59
2022/03/31 07:10:28;;;;;;;;;21.00;18.00;;;;;19.99;36.31;99461.22;4956052;28;45313;-60
2022/03/31 07:12:53;;;;;;;;;21.50;19.25;;;;;20.00;35.97;99459.41;4956359;28;45279;-60
2022/03/31 07:15:19;;;;;;;;;18.75;18.50;;;;;19.98;36.43;99462.16;4955568;28;45353;-60
2022/03/31 07:17:44;;;;;;;;;20.00;18.50;;;;;19.98;36.36;99451.66;4955832;28;45311;-59
2022/03/31 07:20:10;;;;;;;;;19.00;17.75;;;;;20.00;36.17;99460.25;4956164;28;45332;-59
2022/03/31 07:22:43;;;;;;;;;19.50;17.25;;;;;19.99;36.27;99466.47;4956097;28;45445;-58
2022/03/31 07:25:08;;;;;;;;;18.00;17.50;;;;;19.99;36.21;99466.47;4956098;28;45453;-60
2022/03/31 07:27:34;;;;;;;;;19.50;17.50;;;;;19.99;35.70;99466.47;4955965;28;45526;-59
2022/03/31 07:29:59;;;;;;;;;21.25;17.25;;;;;19.99;35.97;99469.09;4955906;28;45350;-58
2022/03/31 07:32:25;;;;;;;;;18.25;16.50;;;;;19.99;36.07;99474.38;4956076;28;45198;-59
2022/03/31 07:34:50;;;;;;;;;18.00;17.25;;;;;19.99;36.46;99463.00;4956584;28;45589;-58
2022/03/31 07:37:16;;;;;;;;;19.00;19.00;;;;;19.98;36.11;99470.06;4955753;28;45200;-59
2022/03/31 07:39:45;;;;;;;;;21.00;18.00;;;;;19.99;36.23;99473.50;4955885;28;45293;-60
2022/03/31 07:42:11;;;;;;;;;25.25;21.00;;;;;20.00;36.14;99481.31;4956050;28;45397;-59
2022/03/31 07:44:36;;;;;;;;;22.50;17.50;;;;;19.98;36.15;99475.31;4956075;28;45367;-58
2022/03/31 07:47:02;;;;;;;;;15.50;15.50;;;;;20.00;36.39;99476.03;4954372;28;46962;-59
2022/03/31 07:49:27;;;;;;;;;14.50;14.50;;;;;20.01;36.67;99477.69;4955736;28;45362;-59
2022/03/31 07:51:53;;;;;;;;;16.50;16.50;;;;;20.01;36.36;99477.69;4955926;28;45999;-58
2022/03/31 07:54:18;;;;;;;;;20.50;16.25;;;;;20.02;36.12;99473.28;4954148;28;45474;-59
2022/03/31 07:56:44;;;;;;;;;17.00;15.00;;;;;20.02;36.32;99479.38;4955452;28;46049;-59
2022/03/31 07:59:09;;;;;;;;;16.50;15.25;;;;;20.05;36.86;99483.59;4955688;28;45299;-60
2022/03/31 08:01:35;;;;;;;;;15.75;14.75;;;;;20.07;36.91;99479.03;4955865;28;45288;-59
2022/03/31 08:04:00;;;;;;;;;18.00;17.25;;;;;20.11;36.49;99482.28;4955822;28;45187;-59
2022/03/31 08:06:26;;;;;;;;;19.00;15.00;;;;;20.12;36.55;99483.97;4955501;28;47022;-58
2022/03/31 08:08:51;;;;;;;;;18.00;14.50;;;;;20.15;36.76;99494.22;4956002;28;45355;-60
2022/03/31 08:11:16;;;;;;;;;19.25;17.50;;;;;20.15;36.32;99488.97;4954434;28;45372;-60
2022/03/31 08:13:42;;;;;;;;;18.50;17.25;;;;;20.17;36.21;99498.44;4955804;28;45578;-61
2022/03/31 08:16:08;;;;;;;;;17.00;15.25;;;;;20.18;36.60;99486.13;4955571;28;45312;-61
2022/03/31 08:18:34;;;;;;;;;19.00;17.75;;;;;20.16;36.23;99485.41;4954095;28;45904;-61
2022/03/31 08:21:00;;;;;;;;;18.75;17.00;;;;;20.17;35.93;99503.72;4955625;28;45469;-60
2022/03/31 08:23:26;;;;;;;;;22.25;17.50;;;;;20.19;36.15;99500.97;4955724;28;45541;-61
2022/03/31 08:25:53;;;;;;;;;18.75;15.25;;;;;20.19;35.80;99507.03;4955629;28;45992;-61
2022/03/31 08:28:20;;;;;;;;;16.75;16.75;;;;;20.20;36.18;99516.63;4955466;28;45400;-60
2022/03/31 08:30:46;;;;;;;;;20.50;18.50;;;;;20.19;35.84;99517.56;4955391;28;45224;-60
2022/03/31 08:33:11;;;;;;;;;16.00;15.25;;;;;20.21;35.92;99530.63;4955505;28;45526;-60
2022/03/31 08:35:37;;;;;;;;;19.00;16.00;;;;;20.20;36.29;99529.78;4955122;28;45693;-60
2022/03/31 08:38:02;;;;;;;;;22.00;17.50;;;;;20.21;35.91;99525.38;4955242;28;45252;-60
2022/03/31 08:40:28;;;;;;;;;14.50;14.50;;;;;20.21;36.18;99541.16;4955255;28;45758;-60
2022/03/31 08:42:54;;;;;;;;;21.50;16.75;;;;;20.22;35.83;99558.63;4955646;28;45311;-61
2022/03/31 08:45:21;;;;;;;;;16.25;15.75;;;;;20.21;35.92;99552.50;4955311;28;47241;-59
2022/03/31 08:47:50;;;;;;;;;15.00;14.50;;;;;20.24;35.71;99561.94;4954931;28;45983;-60
2022/03/31 08:50:20;;;;;;;;;17.00;15.75;;;;;20.27;36.44;99566.16;4955174;28;45328;-60
2022/03/31 08:52:46;;;;;;;;;16.00;16.00;;;;;20.24;35.79;99562.81;4955297;28;45360;-59
2022/03/31 08:55:12;;;;;;;;;16.50;14.50;;;;;20.29;36.59;99574.75;4954909;28;46041;-58
2022/03/31 08:57:43;;;;;;;;;14.75;12.50;;;;;20.30;36.19;99579.06;4954651;28;45411;-58
2022/03/31 09:00:11;;;;;;;;;12.75;11.00;;;;;20.33;36.41;99584.09;4953824;28;45321;-60
2022/03/31 09:02:37;;;;;;;;;15.75;13.50;;;;;20.33;36.57;99587.59;4955008;28;45392;-59
2022/03/31 09:05:10;;;;;;;;;14.50;14.25;;;;;20.31;36.38;99584.25;4954786;28;45348;-60
2022/03/31 09:07:51;;;;;;;;;13.50;12.75;;;;;20.35;36.21;99605.88;4954691;28;45365;-60
2022/03/31 09:10:31;;;;;;;;;15.25;12.75;;;;;20.34;35.97;99605.03;4953525;28;45321;-58
2022/03/31 09:12:58;;;;;;;;;14.25;13.00;;;;;20.33;36.26;99610.41;4955210;28;45427;-57
2022/03/31 09:15:24;;;;;;;;;7.75;7.75;;;;;20.35;35.61;99611.97;4955035;28;46399;-57
2022/03/31 09:17:59;;;;;;;;;13.75;10.25;;;;;20.35;35.92;99630.41;4953989;28;45313;-58
2022/03/31 09:20:39;;;;;;;;;9.00;8.50;;;;;20.35;36.36;99632.22;4953803;28;45421;-59
2022/03/31 09:23:05;;;;;;;;;10.50;9.75;;;;;20.34;35.78;99636.59;4954792;28;45466;-59
2022/03/31 09:25:32;;;;;;;;;11.25;10.50;;;;;20.34;35.77;99633.97;4954444;28;46307;-61
2022/03/31 09:28:00;;;;;;;;;11.75;8.75;;;;;20.35;35.93;99642.72;4953283;28;45911;-62
2022/03/31 09:30:27;;;;;;;;;8.25;8.25;;;;;20.34;35.50;99643.69;4954993;28;45268;-61
2022/03/31 09:32:53;;;;;;;;;11.75;10.00;;;;;20.34;35.28;99648.94;4954969;28;45342;-57
2022/03/31 09:35:23;;;;;;;;;6.00;6.00;;;;;20.32;35.98;99656.97;4953103;28;46576;-59
2022/03/31 09:37:51;;;;;;;;;10.50;9.25;;;;;20.31;35.45;99652.66;4954272;28;45398;-60
2022/03/31 09:40:18;;;;;;;;;8.75;7.75;;;;;20.31;35.20;99668.44;4954570;28;45252;-60
2022/03/31 09:42:58;;;;;;;;;8.75;8.75;;;;;20.30;35.28;99666.75;4954872;28;45205;-56
2022/03/31 09:45:24;;;;;;;;;7.50;7.50;;;;;20.30;35.56;99671.16;4954783;28;45480;-56
2022/03/31 09:47:51;;;;;;;;;6.25;6.25;;;;;20.28;35.17;99668.66;4954347;28;45387;-57
2022/03/31 09:50:18;;;;;;;;;7.50;6.00;;;;;20.28;35.61;99668.66;4954220;28;45450;-57
2022/03/31 09:52:44;;;;;;;;;7.00;6.00;;;;;20.29;35.57;99669.47;4954756;28;45522;-61
2022/03/31 09:55:10;;;;;;;;;6.00;6.00;;;;;20.28;35.41;99666.03;4954381;28;45796;-59
2022/03/31 09:57:38;;;;;;;;;7.25;6.00;;;;;20.27;35.16;99674.03;4954319;28;45939;-60
2022/03/31 10:00:05;;;;;;;;;1.00;0.00;;;;;20.27;35.51;99672.22;4954481;28;45456;-60
2022/03/31 10:02:32;;;;;;;;;6.25;6.25;;;;;20.26;35.76;99667.91;4954401;28;45228;-61
2022/03/31 10:04:57;;;;;;;;;5.50;4.75;;;;;20.27;35.02;99672.22;4954549;28;46390;-60
2022/03/31 10:07:24;;;;;;;;;3.75;3.75;;;;;20.26;35.02;99669.72;4955784;28;45340;-59
2022/03/31 10:09:49;;;;;;;;;4.50;3.25;;;;;20.26;35.00;99664.47;4954304;28;45292;-60
2022/03/31 10:12:40;;;;;;;;;6.25;6.00;;;;;20.25;35.17;99679.38;4954307;28;45424;-59
2022/03/31 10:15:09;;;;;;;;;5.75;4.75;;;;;20.23;34.97;99676.03;4954062;28;46543;-60
2022/03/31 10:17:36;;;;;;;;;5.75;5.25;;;;;20.23;35.16;99681.28;4956220;28;45383;-60
2022/03/31 10:20:12;;;;;;;;;4.00;4.00;;;;;20.22;35.25;99679.63;4957135;28;45388;-59
2022/03/31 10:25:22;;;;;;;;;4.00;4.00;;;;;20.23;35.17;99686.53;4956908;28;45798;-61
2022/03/31 10:27:50;;;;;;;;;4.00;4.00;;;;;20.21;34.77;99684.03;4955352;28;45359;-62
2022/03/31 10:30:28;;;;;;;;;5.00;3.25;;;;;20.22;35.37;99690.16;4956935;28;45446;-60
2022/03/31 10:33:01;;;;;;;;;3.00;3.00;;;;;20.21;35.18;99685.84;4956994;28;45384;-58
2022/03/31 10:35:30;;;;;;;;;5.75;5.00;;;;;20.24;35.12;99683.81;4957055;28;46563;-60
2022/03/31 10:37:57;;;;;;;;;4.25;4.25;;;;;20.22;35.45;99685.72;4957102;28;45822;-60
2022/03/31 10:40:34;;;;;;;;;5.25;5.25;;;;;20.22;35.00;99671.75;4956816;28;45374;-61
2022/03/31 10:43:00;;;;;;;;;6.25;5.00;;;;;20.21;35.00;99664.78;4957383;28;45384;-61
2022/03/31 10:45:40;;;;;;;;;8.75;5.25;;;;;20.21;34.84;99670.06;4956842;28;46026;-61
2022/03/31 10:48:32;;;;;;;;;5.25;5.25;;;;;20.20;34.97;99671.84;4955177;28;45958;-60
2022/03/31 10:51:10;;;;;;;;;8.25;7.25;;;;;20.19;34.86;99670.16;4958287;28;45632;-61
2022/03/31 10:53:41;;;;;;;;;10.50;8.25;;;;;20.19;35.24;99666.69;4956625;28;45591;-61
2022/03/31 10:56:20;;;;;;;;;10.75;7.75;;;;;20.17;35.01;99665.97;4956215;28;45593;-60
2022/03/31 10:58:48;;;;;;;;;13.25;10.25;;;;;20.14;35.34;99668.81;4956454;28;45448;-60
2022/03/31 11:01:13;;;;;;;;;18.75;11.25;;;;;20.15;35.25;99662.59;4956504;28;45343;-61
2022/03/31 11:03:40;;;;;;;;;11.00;9.50;;;;;20.13;35.21;99662.72;4956659;28;45315;-60
2022/03/31 11:06:10;;;;;;;;;13.50;9.75;;;;;20.15;35.05;99673.13;4956578;28;45318;-60
2022/03/31 11:08:43;;;;;;;;;11.00;11.00;;;;;20.13;35.25;99665.34;4956215;28;45346;-61
2022/03/31 11:11:16;;;;;;;;;13.50;11.25;;;;;20.13;35.08;99669.75;4956445;28;45450;-60
2022/03/31 11:13:42;;;;;;;;;11.50;11.50;;;;;20.12;35.07;99668.94;4956668;28;45355;-61
2022/03/31 11:16:07;;;;;;;;;11.25;11.00;;;;;20.10;35.04;99662.94;4956155;28;45393;-61
2022/03/31 11:18:32;;;;;;;;;14.75;11.00;;;;;20.10;35.10;99689.22;4954797;28;45305;-61
2022/03/31 11:20:59;;;;;;;;;12.00;9.00;;;;;20.10;35.01;99686.59;4956731;28;45297;-63
2022/03/31 11:23:27;;;;;;;;;8.25;8.00;;;;;20.07;35.13;99682.41;4956474;28;45331;-62